createdAt,value
2018-09-13T00:00:04.371Z,11.22
2018-09-13T00:05:04.370Z,11.22
2018-09-13T00:10:04.366Z,11.18
2018-09-13T00:15:04.370Z,11.36
2018-09-13T00:20:04.384Z,11.29
2018-09-13T00:25:04.375Z,11.22
2018-09-13T00:30:04.393Z,11.22
2018-09-13T00:35:04.388Z,11.2
2018-09-13T00:40:04.401Z,11.14
2018-09-13T00:45:04.387Z,11.13
2018-09-13T00:50:04.406Z,11.15
2018-09-13T00:55:04.396Z,11.17
2018-09-13T01:00:03.379Z,11.16
2018-09-13T01:05:03.402Z,11.12
2018-09-13T01:10:03.397Z,11.11
2018-09-13T01:15:03.402Z,11.08
2018-09-13T01:20:03.408Z,11.01
2018-09-13T01:25:03.408Z,10.98
2018-09-13T01:30:03.405Z,10.94
2018-09-13T01:35:03.413Z,10.7
2018-09-13T01:40:03.418Z,10.64
2018-09-13T01:45:03.418Z,10.6
2018-09-13T01:50:03.428Z,10.57
2018-09-13T01:55:03.423Z,10.56
2018-09-13T02:00:03.431Z,10.57
2018-09-13T02:05:03.436Z,10.59
2018-09-13T02:10:03.429Z,10.62
2018-09-13T02:15:03.431Z,10.62
2018-09-13T02:20:03.439Z,10.65
2018-09-13T02:25:03.434Z,10.7
2018-09-13T02:30:03.436Z,10.74
2018-09-13T02:35:03.453Z,10.73
2018-09-13T02:40:03.446Z,10.73
2018-09-13T02:45:03.445Z,10.73
2018-09-13T02:50:03.464Z,10.71
2018-09-13T02:55:03.452Z,10.69
2018-09-13T03:00:03.459Z,10.66
2018-09-13T03:05:03.461Z,10.63
2018-09-13T03:10:03.477Z,10.6
2018-09-13T03:15:03.461Z,10.56
2018-09-13T03:20:03.472Z,10.56
2018-09-13T03:25:03.475Z,10.56
2018-09-13T03:30:03.469Z,10.59
2018-09-13T03:35:03.472Z,10.58
2018-09-13T03:40:03.487Z,10.56
2018-09-13T03:45:03.477Z,10.51
2018-09-13T03:50:03.485Z,10.49
2018-09-13T03:55:03.491Z,10.45
2018-09-13T04:00:03.484Z,10.43
2018-09-13T04:05:03.489Z,10.4
2018-09-13T04:10:03.500Z,10.4
2018-09-13T04:15:03.492Z,10.39
2018-09-13T04:20:03.500Z,10.39
2018-09-13T04:25:03.519Z,10.37
2018-09-13T04:30:03.499Z,10.35
2018-09-13T04:35:03.502Z,10.34
2018-09-13T04:40:03.515Z,10.29
2018-09-13T04:45:03.515Z,10.31
2018-09-13T04:50:03.512Z,10.3
2018-09-13T04:55:03.521Z,10.33
2018-09-13T05:00:03.518Z,10.3
2018-09-13T05:05:03.537Z,10.31
2018-09-13T05:10:03.530Z,10.36
2018-09-13T05:15:03.526Z,10.37
2018-09-13T05:20:03.544Z,10.4
2018-09-13T05:25:03.537Z,10.43
2018-09-13T05:30:03.549Z,10.45
2018-09-13T05:35:03.539Z,10.48
2018-09-13T05:40:03.547Z,10.46
2018-09-13T05:45:03.542Z,10.46
2018-09-13T05:50:03.546Z,10.54
2018-09-13T05:55:03.565Z,10.59
2018-09-13T06:00:03.551Z,10.6
2018-09-13T06:05:03.550Z,10.57
2018-09-13T06:10:03.566Z,10.65
2018-09-13T06:15:03.565Z,10.69
2018-09-13T06:20:03.581Z,10.77
2018-09-13T06:25:03.570Z,10.77
2018-09-13T06:30:03.586Z,10.78
2018-09-13T06:35:03.682Z,10.94
2018-09-13T06:40:03.586Z,11.02
2018-09-13T06:45:03.589Z,11.33
2018-09-13T06:50:03.573Z,11.48
2018-09-13T06:55:03.596Z,11.46
2018-09-13T07:00:03.582Z,11.22
2018-09-13T07:05:03.588Z,11.02
2018-09-13T07:10:03.592Z,11.01
2018-09-13T07:15:03.596Z,11.08
2018-09-13T07:20:03.592Z,11.13
2018-09-13T07:25:03.613Z,11.18
2018-09-13T07:30:03.597Z,11.54
2018-09-13T07:35:03.598Z,11.3
2018-09-13T07:40:03.697Z,11.05
2018-09-13T07:45:03.607Z,11.04
2018-09-13T07:50:03.613Z,11.16
2018-09-13T07:55:03.624Z,11.34
2018-09-13T08:00:03.613Z,11.66
2018-09-13T08:05:03.639Z,12.05
2018-09-13T08:10:03.626Z,12.34
2018-09-13T08:15:03.669Z,12.58
2018-09-13T08:20:03.627Z,12.65
2018-09-13T08:25:03.635Z,12.8
2018-09-13T08:30:03.630Z,12.89
2018-09-13T08:35:03.676Z,12.94
2018-09-13T08:40:03.667Z,13
2018-09-13T08:45:03.636Z,12.99
2018-09-13T08:50:03.640Z,12.92
2018-09-13T08:55:03.678Z,12.71
2018-09-13T09:00:03.656Z,12.65
2018-09-13T09:05:03.647Z,12.69
2018-09-13T09:10:03.668Z,12.76
2018-09-13T09:15:03.655Z,12.78
2018-09-13T09:20:03.660Z,12.87
2018-09-13T09:25:03.678Z,12.85
2018-09-13T09:30:03.663Z,12.89
2018-09-13T09:35:03.773Z,12.79
2018-09-13T09:40:03.680Z,13.18
2018-09-13T09:45:03.673Z,12.85
2018-09-13T09:50:03.676Z,12.75
2018-09-13T09:55:03.695Z,12.9
2018-09-13T10:00:03.673Z,13.15
2018-09-13T10:05:03.681Z,13.16
2018-09-13T10:10:03.712Z,13.1
2018-09-13T10:15:03.743Z,13.17
2018-09-13T10:20:03.689Z,13.21
2018-09-13T10:25:03.713Z,13.31
2018-09-13T10:30:03.691Z,13.39
2018-09-13T10:35:03.693Z,13.49
2018-09-13T10:40:03.705Z,13.86
2018-09-13T10:45:03.707Z,14
2018-09-13T10:50:03.703Z,13.99
2018-09-13T10:55:03.714Z,13.98
2018-09-13T11:00:03.710Z,13.82
2018-09-13T11:05:03.708Z,14.22
2018-09-13T11:10:03.741Z,14.53
2018-09-13T11:15:03.718Z,15.11
2018-09-13T11:20:03.722Z,15.44
2018-09-13T11:25:03.739Z,15.51
2018-09-13T11:30:03.730Z,14.98
2018-09-13T11:35:03.731Z,14.77
2018-09-13T11:40:03.851Z,14.71
2018-09-13T11:45:03.733Z,14.59
2018-09-13T11:50:03.741Z,15.39
2018-09-13T11:55:03.751Z,15.86
2018-09-13T12:00:03.742Z,16.15
2018-09-13T12:05:03.743Z,15.72
2018-09-13T12:10:03.761Z,15.17
2018-09-13T12:15:03.750Z,14.82
2018-09-13T12:20:03.755Z,14.45
2018-09-13T12:25:03.763Z,14.29
2018-09-13T12:30:03.766Z,14.41
2018-09-13T12:35:03.765Z,14.65
2018-09-13T12:40:03.779Z,14.83
2018-09-13T12:45:03.765Z,14.68
2018-09-13T12:50:03.866Z,14.54
2018-09-13T12:55:03.780Z,14.83
2018-09-13T13:00:03.775Z,15.23
2018-09-13T13:05:03.777Z,15.34
2018-09-13T13:10:03.787Z,15.52
2018-09-13T13:15:03.780Z,15.41
2018-09-13T13:20:03.785Z,15
2018-09-13T13:25:03.797Z,14.59
2018-09-13T13:30:03.796Z,14.4
2018-09-13T13:35:03.796Z,14.34
2018-09-13T13:40:03.805Z,14.37
2018-09-13T13:45:03.801Z,14.3
2018-09-13T13:50:03.805Z,14.26
2018-09-13T13:55:03.825Z,14.18
2018-09-13T14:00:03.805Z,14.06
2018-09-13T14:05:03.809Z,14.09
2018-09-13T14:10:03.856Z,14.43
2018-09-13T14:15:03.818Z,15.03
2018-09-13T14:20:03.816Z,15.23
2018-09-13T14:25:04.041Z,15.29
2018-09-13T14:30:03.828Z,15.22
2018-09-13T14:35:03.824Z,14.97
2018-09-13T14:40:03.891Z,14.69
2018-09-13T14:45:03.829Z,14.62
2018-09-13T14:50:03.831Z,14.8
2018-09-13T14:55:03.846Z,15.04
2018-09-13T15:00:03.844Z,15.26
2018-09-13T15:05:03.846Z,15.54
2018-09-13T15:10:03.849Z,15.93
2018-09-13T15:15:03.851Z,15.99
2018-09-13T15:20:03.851Z,16.1
2018-09-13T15:25:03.858Z,15.88
2018-09-13T15:30:03.854Z,15.55
2018-09-13T15:35:03.862Z,15.57
2018-09-13T15:40:03.881Z,15.42
2018-09-13T15:45:03.874Z,15.04
2018-09-13T15:50:03.883Z,14.74
2018-09-13T15:55:03.920Z,14.52
2018-09-13T16:00:03.877Z,14.36
2018-09-13T16:05:03.875Z,14.18
2018-09-13T16:10:03.893Z,14.1
2018-09-13T16:15:03.886Z,14.09
2018-09-13T16:20:03.960Z,14.17
2018-09-13T16:25:04.057Z,14.15
2018-09-13T16:30:04.012Z,14.12
2018-09-13T16:35:04.001Z,14.06
2018-09-13T16:40:03.902Z,14.08
2018-09-13T16:45:03.914Z,14.15
2018-09-13T16:50:03.917Z,14.23
2018-09-13T16:55:03.923Z,14.19
2018-09-13T17:00:03.909Z,14.11
2018-09-13T17:05:03.909Z,13.94
2018-09-13T17:10:03.922Z,13.79
2018-09-13T17:15:03.930Z,13.64
2018-09-13T17:20:03.915Z,13.45
2018-09-13T17:25:03.927Z,13.3
2018-09-13T17:30:03.915Z,13.18
2018-09-13T17:35:03.929Z,13.05
2018-09-13T17:40:03.930Z,12.89
2018-09-13T17:45:03.928Z,12.67
2018-09-13T17:50:03.928Z,12.48
2018-09-13T17:55:03.944Z,12.22
2018-09-13T18:00:03.931Z,11.88
2018-09-13T18:05:03.938Z,11.6
2018-09-13T18:10:03.956Z,11.57
2018-09-13T18:15:03.974Z,11.51
2018-09-13T18:20:03.942Z,11.34
2018-09-13T18:25:03.953Z,11.14
2018-09-13T18:30:03.948Z,10.92
2018-09-13T18:35:03.955Z,10.69
2018-09-13T18:40:03.964Z,10.55
2018-09-13T18:45:04.021Z,10.38
2018-09-13T18:50:03.955Z,10.26
2018-09-13T18:55:03.973Z,10.12
2018-09-13T19:00:03.962Z,10.03
2018-09-13T19:05:03.966Z,10.01
2018-09-13T19:10:03.983Z,9.95
2018-09-13T19:15:03.973Z,9.84
2018-09-13T19:20:03.974Z,9.74
2018-09-13T19:25:03.983Z,9.64
2018-09-13T19:30:03.981Z,9.61
2018-09-13T19:35:03.988Z,9.59
2018-09-13T19:40:04.005Z,9.53
2018-09-13T19:45:03.990Z,9.39
2018-09-13T19:50:04.006Z,9.31
2018-09-13T19:55:04.015Z,9.2
2018-09-13T20:00:03.996Z,9.18
2018-09-13T20:05:04.084Z,9.16
2018-09-13T20:10:04.014Z,9.11
2018-09-13T20:15:04.005Z,9.07
2018-09-13T20:20:04.017Z,8.98
2018-09-13T20:25:04.026Z,8.89
2018-09-13T20:30:04.025Z,8.75
2018-09-13T20:35:04.015Z,8.66
2018-09-13T20:40:04.022Z,8.51
2018-09-13T20:45:04.024Z,8.43
2018-09-13T20:50:04.029Z,8.35
2018-09-13T20:55:04.032Z,8.22
2018-09-13T21:00:04.023Z,8.17
2018-09-13T21:05:04.027Z,8.05
2018-09-13T21:10:04.048Z,8
2018-09-13T21:15:04.045Z,7.96
2018-09-13T21:20:04.039Z,7.9
2018-09-13T21:25:04.093Z,7.86
2018-09-13T21:30:04.042Z,7.84
2018-09-13T21:35:04.047Z,7.76
2018-09-13T21:40:04.063Z,7.71
2018-09-13T21:45:04.051Z,7.71
2018-09-13T21:50:04.056Z,7.72
2018-09-13T21:55:04.075Z,7.69
2018-09-13T22:00:04.065Z,7.7
2018-09-13T22:05:04.063Z,7.64
2018-09-13T22:10:04.072Z,7.61
2018-09-13T22:15:04.067Z,7.48
2018-09-13T22:20:04.073Z,7.46
2018-09-13T22:25:04.084Z,7.42
2018-09-13T22:30:04.077Z,7.38
2018-09-13T22:35:04.077Z,7.31
2018-09-13T22:40:04.105Z,7.41
2018-09-13T22:45:04.079Z,7.39
2018-09-13T22:50:04.094Z,7.34
2018-09-13T22:55:04.111Z,7.3
2018-09-13T23:00:04.103Z,7.24
2018-09-13T23:05:04.116Z,7.22
2018-09-13T23:10:04.111Z,7.26
2018-09-13T23:15:04.117Z,7.23
2018-09-13T23:20:04.109Z,7.16
2018-09-13T23:25:04.111Z,7.16
2018-09-13T23:30:04.128Z,7.11
2018-09-13T23:35:04.159Z,7.11
2018-09-13T23:40:04.250Z,7.01
2018-09-13T23:45:04.120Z,6.9
2018-09-13T23:50:04.135Z,6.86
2018-09-13T23:55:04.141Z,6.81
